sensor_id;sensor_type;location;lat;lon;timestamp;pressure;altitude;pressure_sealevel;temperature
40045;BMP280;25735;48.122;11.422;2023-01-25T00:01:53;96661.88;;;1.51
40045;BMP280;25735;48.122;11.422;2023-01-25T00:04:19;96642.75;;;1.60
40045;BMP280;25735;48.122;11.422;2023-01-25T00:06:45;96643.50;;;1.70
40045;BMP280;25735;48.122;11.422;2023-01-25T00:09:11;96644.25;;;1.64
40045;BMP280;25735;48.122;11.422;2023-01-25T00:11:36;96654.22;;;1.64
40045;BMP280;25735;48.122;11.422;2023-01-25T00:14:03;96654.22;;;1.64
40045;BMP280;25735;48.122;11.422;2023-01-25T00:16:28;96642.75;;;1.60
40045;BMP280;25735;48.122;11.422;2023-01-25T00:18:53;96652.69;;;1.73
40045;BMP280;25735;48.122;11.422;2023-01-25T00:21:24;96656.53;;;1.75
40045;BMP280;25735;48.122;11.422;2023-01-25T00:23:49;96648.84;;;1.70
40045;BMP280;25735;48.122;11.422;2023-01-25T00:26:15;96644.28;;;1.57
40045;BMP280;25735;48.122;11.422;2023-01-25T00:28:40;96648.09;;;1.70
40045;BMP280;25735;48.122;11.422;2023-01-25T00:31:08;96638.16;;;1.64
40045;BMP280;25735;48.122;11.422;2023-01-25T00:36:02;96648.09;;;1.70
40045;BMP280;25735;48.122;11.422;2023-01-25T00:38:47;96646.19;;;1.74
40045;BMP280;25735;48.122;11.422;2023-01-25T00:41:12;96650.38;;;1.71
40045;BMP280;25735;48.122;11.422;2023-01-25T00:43:37;96646.94;;;1.67
40045;BMP280;25735;48.122;11.422;2023-01-25T00:46:03;96642.34;;;1.75
40045;BMP280;25735;48.122;11.422;2023-01-25T00:48:28;96643.47;;;1.81
40045;BMP280;25735;48.122;11.422;2023-01-25T00:50:53;96636.59;;;1.87
40045;BMP280;25735;48.122;11.422;2023-01-25T00:53:18;96633.53;;;1.85
40045;BMP280;25735;48.122;11.422;2023-01-25T00:55:51;96632.38;;;1.89
40045;BMP280;25735;48.122;11.422;2023-01-25T00:58:16;96631.25;;;1.63
40045;BMP280;25735;48.122;11.422;2023-01-25T01:00:41;96645.78;;;1.72
40045;BMP280;25735;48.122;11.422;2023-01-25T01:03:06;96638.91;;;1.74
40045;BMP280;25735;48.122;11.422;2023-01-25T01:05:32;96632.38;;;1.62
40045;BMP280;25735;48.122;11.422;2023-01-25T01:07:58;96639.66;;;1.58
40045;BMP280;25735;48.122;11.422;2023-01-25T01:10:24;96642.75;;;1.56
40045;BMP280;25735;48.122;11.422;2023-01-25T01:12:50;96641.97;;;1.52
40045;BMP280;25735;48.122;11.422;2023-01-25T01:15:15;96636.59;;;1.56
40045;BMP280;25735;48.122;11.422;2023-01-25T01:17:40;96642.34;;;1.47
40045;BMP280;25735;48.122;11.422;2023-01-25T01:20:06;96638.16;;;1.53
40045;BMP280;25735;48.122;11.422;2023-01-25T01:22:31;96645.03;;;1.44
40045;BMP280;25735;48.122;11.422;2023-01-25T01:24:56;96645.78;;;1.38
40045;BMP280;25735;48.122;11.422;2023-01-25T01:27:21;96631.25;;;1.39
40045;BMP280;25735;48.122;11.422;2023-01-25T01:29:46;96632.41;;;1.41
40045;BMP280;25735;48.122;11.422;2023-01-25T01:32:12;96632.78;;;1.43
40045;BMP280;25735;48.122;11.422;2023-01-25T01:34:37;96633.56;;;1.47
40045;BMP280;25735;48.122;11.422;2023-01-25T01:37:02;96622.84;;;1.57
40045;BMP280;25735;48.122;11.422;2023-01-25T01:39:27;96628.19;;;1.57
40045;BMP280;25735;48.122;11.422;2023-01-25T01:41:53;96635.47;;;1.64
40045;BMP280;25735;48.122;11.422;2023-01-25T01:44:21;96618.63;;;1.56
40045;BMP280;25735;48.122;11.422;2023-01-25T01:47:12;96620.94;;;1.40
40045;BMP280;25735;48.122;11.422;2023-01-25T01:49:39;96620.53;;;1.42
40045;BMP280;25735;48.122;11.422;2023-01-25T01:52:09;96622.81;;;1.64
40045;BMP280;25735;48.122;11.422;2023-01-25T01:54:42;96638.16;;;1.60
40045;BMP280;25735;48.122;11.422;2023-01-25T01:57:14;96622.84;;;1.50
40045;BMP280;25735;48.122;11.422;2023-01-25T01:59:43;96613.63;;;1.58
40045;BMP280;25735;48.122;11.422;2023-01-25T02:02:11;96616.72;;;1.50
40045;BMP280;25735;48.122;11.422;2023-01-25T02:04:37;96624.75;;;1.46
40045;BMP280;25735;48.122;11.422;2023-01-25T02:07:06;96625.53;;;1.43
40045;BMP280;25735;48.122;11.422;2023-01-25T02:09:35;96632.00;;;1.32
40045;BMP280;25735;48.122;11.422;2023-01-25T02:12:01;96638.53;;;1.31
40045;BMP280;25735;48.122;11.422;2023-01-25T02:14:28;96637.34;;;1.22
40045;BMP280;25735;48.122;11.422;2023-01-25T02:16:54;96638.13;;;1.33
40045;BMP280;25735;48.122;11.422;2023-01-25T02:21:57;96625.13;;;1.41
40045;BMP280;25735;48.122;11.422;2023-01-25T02:24:27;96621.31;;;1.49
40045;BMP280;25735;48.122;11.422;2023-01-25T02:26:53;96624.72;;;1.33
40045;BMP280;25735;48.122;11.422;2023-01-25T02:29:19;96623.59;;;1.34
40045;BMP280;25735;48.122;11.422;2023-01-25T02:31:47;96629.31;;;1.18
40045;BMP280;25735;48.122;11.422;2023-01-25T02:34:16;96612.50;;;1.32
40045;BMP280;25735;48.122;11.422;2023-01-25T02:36:41;96623.56;;;1.23
40045;BMP280;25735;48.122;11.422;2023-01-25T02:39:16;96617.84;;;1.32
40045;BMP280;25735;48.122;11.422;2023-01-25T02:41:44;96615.56;;;1.27
40045;BMP280;25735;48.122;11.422;2023-01-25T02:44:14;96610.97;;;1.24
40045;BMP280;25735;48.122;11.422;2023-01-25T02:46:42;96610.97;;;1.38
40045;BMP280;25735;48.122;11.422;2023-01-25T02:49:09;96622.06;;;1.29
40045;BMP280;25735;48.122;11.422;2023-01-25T02:51:40;96604.47;;;1.21
40045;BMP280;25735;48.122;11.422;2023-01-25T02:54:07;96612.88;;;1.30
40045;BMP280;25735;48.122;11.422;2023-01-25T02:56:33;96597.59;;;1.24
40045;BMP280;25735;48.122;11.422;2023-01-25T02:58:59;96599.09;;;1.28
40045;BMP280;25735;48.122;11.422;2023-01-25T03:01:29;96607.53;;;1.40
40045;BMP280;25735;48.122;11.422;2023-01-25T03:03:54;96601.78;;;1.32
40045;BMP280;25735;48.122;11.422;2023-01-25T03:06:19;96602.94;;;1.31
40045;BMP280;25735;48.122;11.422;2023-01-25T03:08:45;96593.75;;;1.42
40045;BMP280;25735;48.122;11.422;2023-01-25T03:11:10;96597.94;;;1.36
40045;BMP280;25735;48.122;11.422;2023-01-25T03:13:36;96599.88;;;1.42
40045;BMP280;25735;48.122;11.422;2023-01-25T03:16:10;96593.75;;;1.59
40045;BMP280;25735;48.122;11.422;2023-01-25T03:18:36;96591.47;;;1.40
40045;BMP280;25735;48.122;11.422;2023-01-25T03:23:37;96580.34;;;1.32
40045;BMP280;25735;48.122;11.422;2023-01-25T03:28:38;96588.00;;;1.50
40045;BMP280;25735;48.122;11.422;2023-01-25T03:31:05;96592.63;;;1.43
40045;BMP280;25735;48.122;11.422;2023-01-25T03:33:30;96582.25;;;1.48
40045;BMP280;25735;48.122;11.422;2023-01-25T03:35:56;96576.16;;;1.48
40045;BMP280;25735;48.122;11.422;2023-01-25T03:38:21;96588.78;;;1.40
40045;BMP280;25735;48.122;11.422;2023-01-25T03:40:47;96586.09;;;1.61
40045;BMP280;25735;48.122;11.422;2023-01-25T03:43:13;96571.53;;;1.55
40045;BMP280;25735;48.122;11.422;2023-01-25T03:45:38;96584.59;;;1.43
40045;BMP280;25735;48.122;11.422;2023-01-25T03:48:04;96578.81;;;1.44
40045;BMP280;25735;48.122;11.422;2023-01-25T03:50:30;96578.81;;;1.51
40045;BMP280;25735;48.122;11.422;2023-01-25T03:52:55;96586.09;;;1.47
40045;BMP280;25735;48.122;11.422;2023-01-25T03:55:26;96569.25;;;1.50
40045;BMP280;25735;48.122;11.422;2023-01-25T03:57:51;96576.91;;;1.38
40045;BMP280;25735;48.122;11.422;2023-01-25T04:00:17;96575.38;;;1.40
40045;BMP280;25735;48.122;11.422;2023-01-25T04:02:44;96570.03;;;1.37
40045;BMP280;25735;48.122;11.422;2023-01-25T04:05:10;96576.16;;;1.44
40045;BMP280;25735;48.122;11.422;2023-01-25T04:07:35;96573.09;;;1.60
40045;BMP280;25735;48.122;11.422;2023-01-25T04:10:00;96580.00;;;1.40
40045;BMP280;25735;48.122;11.422;2023-01-25T04:12:25;96579.59;;;1.41
40045;BMP280;25735;48.122;11.422;2023-01-25T04:14:51;96563.91;;;1.50
40045;BMP280;25735;48.122;11.422;2023-01-25T04:17:16;96567.34;;;1.54
40045;BMP280;25735;48.122;11.422;2023-01-25T04:19:41;96574.22;;;1.48
40045;BMP280;25735;48.122;11.422;2023-01-25T04:22:06;96574.59;;;1.26
40045;BMP280;25735;48.122;11.422;2023-01-25T04:24:32;96580.00;;;1.33
40045;BMP280;25735;48.122;11.422;2023-01-25T04:26:58;96570.81;;;1.34
40045;BMP280;25735;48.122;11.422;2023-01-25T04:29:23;96573.84;;;1.33
40045;BMP280;25735;48.122;11.422;2023-01-25T04:31:48;96565.44;;;1.31
40045;BMP280;25735;48.122;11.422;2023-01-25T04:34:14;96557.41;;;1.38
40045;BMP280;25735;48.122;11.422;2023-01-25T04:36:39;96569.66;;;1.32
40045;BMP280;25735;48.122;11.422;2023-01-25T04:39:04;96552.41;;;1.29
40045;BMP280;25735;48.122;11.422;2023-01-25T04:41:29;96557.41;;;1.31
40045;BMP280;25735;48.122;11.422;2023-01-25T04:43:55;96564.28;;;1.39
40045;BMP280;25735;48.122;11.422;2023-01-25T04:46:20;96552.41;;;1.39
40045;BMP280;25735;48.122;11.422;2023-01-25T04:48:45;96548.97;;;1.39
40045;BMP280;25735;48.122;11.422;2023-01-25T04:51:11;96548.19;;;1.45
40045;BMP280;25735;48.122;11.422;2023-01-25T04:53:37;96537.53;;;1.18
40045;BMP280;25735;48.122;11.422;2023-01-25T04:56:02;96541.72;;;1.29
40045;BMP280;25735;48.122;11.422;2023-01-25T04:58:28;96543.25;;;1.30
40045;BMP280;25735;48.122;11.422;2023-01-25T05:00:53;96540.94;;;1.39
40045;BMP280;25735;48.122;11.422;2023-01-25T05:03:18;96535.97;;;1.48
40045;BMP280;25735;48.122;11.422;2023-01-25T05:05:47;96540.16;;;1.52
40045;BMP280;25735;48.122;11.422;2023-01-25T05:08:12;96537.47;;;1.52
40045;BMP280;25735;48.122;11.422;2023-01-25T05:10:37;96529.09;;;1.37
40045;BMP280;25735;48.122;11.422;2023-01-25T05:13:03;96531.75;;;1.26
40045;BMP280;25735;48.122;11.422;2023-01-25T05:15:29;96529.84;;;1.20
40045;BMP280;25735;48.122;11.422;2023-01-25T05:17:55;96527.19;;;1.27
40045;BMP280;25735;48.122;11.422;2023-01-25T05:20:20;96532.53;;;1.16
40045;BMP280;25735;48.122;11.422;2023-01-25T05:22:45;96529.09;;;1.19
40045;BMP280;25735;48.122;11.422;2023-01-25T05:25:10;96526.44;;;1.09
40045;BMP280;25735;48.122;11.422;2023-01-25T05:27:56;96525.28;;;1.24
40045;BMP280;25735;48.122;11.422;2023-01-25T05:30:21;96518.78;;;1.18
40045;BMP280;25735;48.122;11.422;2023-01-25T05:32:47;96511.13;;;1.16
40045;BMP280;25735;48.122;11.422;2023-01-25T05:35:13;96524.88;;;1.36
40045;BMP280;25735;48.122;11.422;2023-01-25T05:37:38;96512.63;;;1.38
40045;BMP280;25735;48.122;11.422;2023-01-25T05:40:04;96516.84;;;1.32
40045;BMP280;25735;48.122;11.422;2023-01-25T05:42:29;96527.94;;;1.34
40045;BMP280;25735;48.122;11.422;2023-01-25T05:44:54;96524.88;;;1.22
40045;BMP280;25735;48.122;11.422;2023-01-25T05:47:20;96530.66;;;1.17
40045;BMP280;25735;48.122;11.422;2023-01-25T05:49:45;96530.25;;;1.29
40045;BMP280;25735;48.122;11.422;2023-01-25T05:52:14;96524.88;;;1.25
40045;BMP280;25735;48.122;11.422;2023-01-25T05:54:40;96526.41;;;1.19
40045;BMP280;25735;48.122;11.422;2023-01-25T05:57:05;96526.78;;;1.32
40045;BMP280;25735;48.122;11.422;2023-01-25T05:59:30;96522.97;;;1.15
40045;BMP280;25735;48.122;11.422;2023-01-25T06:01:55;96530.25;;;1.15
40045;BMP280;25735;48.122;11.422;2023-01-25T06:04:21;96527.97;;;1.31
40045;BMP280;25735;48.122;11.422;2023-01-25T06:06:46;96521.44;;;1.35
40045;BMP280;25735;48.122;11.422;2023-01-25T06:09:12;96524.13;;;1.32
40045;BMP280;25735;48.122;11.422;2023-01-25T06:11:37;96521.41;;;1.45
40045;BMP280;25735;48.122;11.422;2023-01-25T06:14:03;96515.69;;;1.23
40045;BMP280;25735;48.122;11.422;2023-01-25T06:16:28;96505.41;;;1.11
40045;BMP280;25735;48.122;11.422;2023-01-25T06:18:53;96519.16;;;1.06
40045;BMP280;25735;48.122;11.422;2023-01-25T06:21:19;96521.06;;;1.02
40045;BMP280;25735;48.122;11.422;2023-01-25T06:23:44;96508.09;;;1.01
40045;BMP280;25735;48.122;11.422;2023-01-25T06:26:12;96508.44;;;1.23
40045;BMP280;25735;48.122;11.422;2023-01-25T06:28:37;96503.88;;;1.24
40045;BMP280;25735;48.122;11.422;2023-01-25T06:31:07;96508.06;;;1.11
40045;BMP280;25735;48.122;11.422;2023-01-25T06:33:34;96507.28;;;1.24
40045;BMP280;25735;48.122;11.422;2023-01-25T06:36:01;96495.81;;;1.31
40045;BMP280;25735;48.122;11.422;2023-01-25T06:38:26;96498.13;;;1.15
40045;BMP280;25735;48.122;11.422;2023-01-25T06:40:52;96500.03;;;1.18
40045;BMP280;25735;48.122;11.422;2023-01-25T06:43:17;96491.25;;;1.14
40045;BMP280;25735;48.122;11.422;2023-01-25T06:45:42;96498.91;;;1.05
40045;BMP280;25735;48.122;11.422;2023-01-25T06:48:07;96487.41;;;1.08
40045;BMP280;25735;48.122;11.422;2023-01-25T06:50:33;96501.94;;;0.93
40045;BMP280;25735;48.122;11.422;2023-01-25T06:52:58;96495.47;;;1.01
40045;BMP280;25735;48.122;11.422;2023-01-25T06:55:23;96494.69;;;1.11
40045;BMP280;25735;48.122;11.422;2023-01-25T06:57:49;96487.41;;;1.15
40045;BMP280;25735;48.122;11.422;2023-01-25T07:00:15;96488.16;;;1.15
40045;BMP280;25735;48.122;11.422;2023-01-25T07:02:41;96477.09;;;1.24
40045;BMP280;25735;48.122;11.422;2023-01-25T07:05:07;96475.94;;;0.90
40045;BMP280;25735;48.122;11.422;2023-01-25T07:07:32;96479.00;;;1.10
40045;BMP280;25735;48.122;11.422;2023-01-25T07:09:58;96468.28;;;1.16
40045;BMP280;25735;48.122;11.422;2023-01-25T07:12:24;96461.41;;;1.19
40045;BMP280;25735;48.122;11.422;2023-01-25T07:14:50;96465.22;;;1.18
40045;BMP280;25735;48.122;11.422;2023-01-25T07:17:15;96466.00;;;1.08
40045;BMP280;25735;48.122;11.422;2023-01-25T07:19:41;96459.88;;;1.18
40045;BMP280;25735;48.122;11.422;2023-01-25T07:22:06;96472.50;;;1.14
40045;BMP280;25735;48.122;11.422;2023-01-25T07:24:31;96464.47;;;1.07
40045;BMP280;25735;48.122;11.422;2023-01-25T07:26:56;96468.28;;;1.16
40045;BMP280;25735;48.122;11.422;2023-01-25T07:29:22;96469.81;;;0.93
40045;BMP280;25735;48.122;11.422;2023-01-25T07:31:47;96462.16;;;1.16
40045;BMP280;25735;48.122;11.422;2023-01-25T07:34:13;96458.34;;;1.10
40045;BMP280;25735;48.122;11.422;2023-01-25T07:36:39;96455.69;;;1.17
40045;BMP280;25735;48.122;11.422;2023-01-25T07:39:05;96467.91;;;0.94
40045;BMP280;25735;48.122;11.422;2023-01-25T07:41:30;96461.44;;;0.84
40045;BMP280;25735;48.122;11.422;2023-01-25T07:43:56;96467.91;;;0.94
40045;BMP280;25735;48.122;11.422;2023-01-25T07:46:22;96468.31;;;0.96
40045;BMP280;25735;48.122;11.422;2023-01-25T07:48:49;96459.13;;;1.00
40045;BMP280;25735;48.122;11.422;2023-01-25T07:51:16;96469.03;;;1.10
40045;BMP280;25735;48.122;11.422;2023-01-25T07:53:53;96459.13;;;1.14
40045;BMP280;25735;48.122;11.422;2023-01-25T07:56:20;96466.00;;;1.08
40045;BMP280;25735;48.122;11.422;2023-01-25T07:58:46;96465.25;;;1.04
40045;BMP280;25735;48.122;11.422;2023-01-25T08:01:14;96465.25;;;1.01
40045;BMP280;25735;48.122;11.422;2023-01-25T08:03:40;96474.41;;;1.03
40045;BMP280;25735;48.122;11.422;2023-01-25T08:06:06;96459.13;;;0.93
40045;BMP280;25735;48.122;11.422;2023-01-25T08:08:34;96476.72;;;0.94
40045;BMP280;25735;48.122;11.422;2023-01-25T08:11:05;96480.53;;;1.14
40045;BMP280;25735;48.122;11.422;2023-01-25T08:13:30;96472.50;;;1.04
40045;BMP280;25735;48.122;11.422;2023-01-25T08:15:56;96482.06;;;1.08
40045;BMP280;25735;48.122;11.422;2023-01-25T08:18:21;96468.28;;;1.20
40045;BMP280;25735;48.122;11.422;2023-01-25T08:20:47;96470.97;;;1.27
40045;BMP280;25735;48.122;11.422;2023-01-25T08:23:12;96471.34;;;1.18
40045;BMP280;25735;48.122;11.422;2023-01-25T08:25:38;96472.13;;;1.12
40045;BMP280;25735;48.122;11.422;2023-01-25T08:28:04;96476.31;;;1.03
40045;BMP280;25735;48.122;11.422;2023-01-25T08:30:29;96466.75;;;1.09
40045;BMP280;25735;48.122;11.422;2023-01-25T08:32:54;96471.38;;;1.01
40045;BMP280;25735;48.122;11.422;2023-01-25T08:35:20;96462.91;;;1.20
40045;BMP280;25735;48.122;11.422;2023-01-25T08:37:45;96462.53;;;1.32
40045;BMP280;25735;48.122;11.422;2023-01-25T08:40:11;96457.91;;;1.39
40045;BMP280;25735;48.122;11.422;2023-01-25T08:42:38;96455.28;;;1.22
40045;BMP280;25735;48.122;11.422;2023-01-25T08:45:03;96444.56;;;1.22
40045;BMP280;25735;48.122;11.422;2023-01-25T08:47:29;96452.97;;;1.31
40045;BMP280;25735;48.122;11.422;2023-01-25T08:49:54;96459.84;;;1.28
40045;BMP280;25735;48.122;11.422;2023-01-25T08:52:20;96435.34;;;1.26
40045;BMP280;25735;48.122;11.422;2023-01-25T08:54:45;96446.03;;;1.47
40045;BMP280;25735;48.122;11.422;2023-01-25T08:57:10;96433.78;;;1.42
40045;BMP280;25735;48.122;11.422;2023-01-25T08:59:35;96450.66;;;1.36
40045;BMP280;25735;48.122;11.422;2023-01-25T09:02:00;96453.31;;;1.43
40045;BMP280;25735;48.122;11.422;2023-01-25T09:04:26;96451.81;;;1.32
40045;BMP280;25735;48.122;11.422;2023-01-25T09:06:53;96450.28;;;1.34
40045;BMP280;25735;48.122;11.422;2023-01-25T09:09:18;96438.06;;;1.33
40045;BMP280;25735;48.122;11.422;2023-01-25T09:11:46;96443.78;;;1.28
40045;BMP280;25735;48.122;11.422;2023-01-25T09:14:11;96443.41;;;1.37
40045;BMP280;25735;48.122;11.422;2023-01-25T09:16:37;96433.84;;;1.22
40045;BMP280;25735;48.122;11.422;2023-01-25T09:19:03;96441.06;;;1.39
40045;BMP280;25735;48.122;11.422;2023-01-25T09:21:29;96430.38;;;1.39
40045;BMP280;25735;48.122;11.422;2023-01-25T09:23:55;96426.22;;;1.24
40045;BMP280;25735;48.122;11.422;2023-01-25T09:26:20;96429.25;;;1.29
40045;BMP280;25735;48.122;11.422;2023-01-25T09:28:50;96436.44;;;1.56
40045;BMP280;25735;48.122;11.422;2023-01-25T09:31:16;96439.50;;;1.51
40045;BMP280;25735;48.122;11.422;2023-01-25T09:33:42;96433.00;;;1.59
40045;BMP280;25735;48.122;11.422;2023-01-25T09:36:08;96439.16;;;1.49
40045;BMP280;25735;48.122;11.422;2023-01-25T09:38:33;96422.72;;;1.40
40045;BMP280;25735;48.122;11.422;2023-01-25T09:44:08;96435.38;;;1.33
40045;BMP280;25735;48.122;11.422;2023-01-25T09:46:52;96435.72;;;1.35
40045;BMP280;25735;48.122;11.422;2023-01-25T09:49:49;96426.06;;;1.62
40045;BMP280;25735;48.122;11.422;2023-01-25T09:54:55;96423.81;;;1.60
40045;BMP280;25735;48.122;11.422;2023-01-25T09:57:25;96428.03;;;1.51
40045;BMP280;25735;48.122;11.422;2023-01-25T09:59:52;96420.00;;;1.51
40045;BMP280;25735;48.122;11.422;2023-01-25T10:02:27;96423.09;;;1.49
40045;BMP280;25735;48.122;11.422;2023-01-25T10:05:00;96414.22;;;1.56
40045;BMP280;25735;48.122;11.422;2023-01-25T10:07:37;96415.06;;;1.36
40045;BMP280;25735;48.122;11.422;2023-01-25T10:10:13;96407.00;;;1.46
40045;BMP280;25735;48.122;11.422;2023-01-25T10:12:40;96403.94;;;1.51
40045;BMP280;25735;48.122;11.422;2023-01-25T10:15:22;96403.13;;;1.57
40045;BMP280;25735;48.122;11.422;2023-01-25T10:17:58;96400.09;;;1.52
40045;BMP280;25735;48.122;11.422;2023-01-25T10:20:36;96390.91;;;1.60
40045;BMP280;25735;48.122;11.422;2023-01-25T10:25:45;96398.53;;;1.58
40045;BMP280;25735;48.122;11.422;2023-01-25T10:31:05;96398.94;;;1.60
40045;BMP280;25735;48.122;11.422;2023-01-25T10:33:34;96384.78;;;1.49
40045;BMP280;25735;48.122;11.422;2023-01-25T10:36:03;96388.66;;;1.44
40045;BMP280;25735;48.122;11.422;2023-01-25T10:38:34;96370.22;;;1.60
40045;BMP280;25735;48.122;11.422;2023-01-25T10:41:06;96379.81;;;1.54
40045;BMP280;25735;48.122;11.422;2023-01-25T10:43:34;96376.44;;;1.30
40045;BMP280;25735;48.122;11.422;2023-01-25T10:46:00;96371.09;;;1.33
40045;BMP280;25735;48.122;11.422;2023-01-25T10:48:29;96381.78;;;1.43
40045;BMP280;25735;48.122;11.422;2023-01-25T10:50:57;96364.84;;;1.60
40045;BMP280;25735;48.122;11.422;2023-01-25T10:53:35;96371.69;;;1.68
40045;BMP280;25735;48.122;11.422;2023-01-25T10:58:36;96365.28;;;1.48
40045;BMP280;25735;48.122;11.422;2023-01-25T11:01:09;96340.34;;;1.62
40045;BMP280;25735;48.122;11.422;2023-01-25T11:03:40;96357.56;;;1.64
40045;BMP280;25735;48.122;11.422;2023-01-25T11:06:07;96357.19;;;1.66
40045;BMP280;25735;48.122;11.422;2023-01-25T11:11:13;96335.00;;;1.58
40045;BMP280;25735;48.122;11.422;2023-01-25T11:13:39;96331.22;;;1.49
40045;BMP280;25735;48.122;11.422;2023-01-25T11:16:28;96330.38;;;1.69
40045;BMP280;25735;48.122;11.422;2023-01-25T11:18:56;96322.81;;;1.50
40045;BMP280;25735;48.122;11.422;2023-01-25T11:21:26;96329.41;;;1.29
40045;BMP280;25735;48.122;11.422;2023-01-25T11:26:34;96322.88;;;1.30
40045;BMP280;25735;48.122;11.422;2023-01-25T11:29:11;96319.50;;;1.15
40045;BMP280;25735;48.122;11.422;2023-01-25T11:31:37;96312.97;;;1.30
40045;BMP280;25735;48.122;11.422;2023-01-25T11:34:09;96314.91;;;1.16
40045;BMP280;25735;48.122;11.422;2023-01-25T11:44:41;96287.78;;;1.14
40045;BMP280;25735;48.122;11.422;2023-01-25T11:53:13;96276.44;;;1.64
40045;BMP280;25735;48.122;11.422;2023-01-25T11:55:53;96269.59;;;1.52
40045;BMP280;25735;48.122;11.422;2023-01-25T12:01:05;96250.78;;;1.66
40045;BMP280;25735;48.122;11.422;2023-01-25T12:03:59;96252.34;;;1.57
40045;BMP280;25735;48.122;11.422;2023-01-25T12:06:56;96237.28;;;1.80
40045;BMP280;25735;48.122;11.422;2023-01-25T12:09:37;96233.47;;;1.74
40045;BMP280;25735;48.122;11.422;2023-01-25T12:12:11;96237.72;;;1.68
40045;BMP280;25735;48.122;11.422;2023-01-25T12:17:40;96224.91;;;1.39
40045;BMP280;25735;48.122;11.422;2023-01-25T12:20:22;96222.50;;;1.55
40045;BMP280;25735;48.122;11.422;2023-01-25T12:23:08;96220.59;;;1.55
40045;BMP280;25735;48.122;11.422;2023-01-25T12:26:06;96212.81;;;1.17
40045;BMP280;25735;48.122;11.422;2023-01-25T12:31:21;96216.44;;;1.47
40045;BMP280;25735;48.122;11.422;2023-01-25T12:34:02;96207.94;;;1.56
40045;BMP280;25735;48.122;11.422;2023-01-25T12:36:37;96202.00;;;1.31
40045;BMP280;25735;48.122;11.422;2023-01-25T12:39:27;96198.06;;;1.49
40045;BMP280;25735;48.122;11.422;2023-01-25T12:42:03;96198.06;;;1.49
40045;BMP280;25735;48.122;11.422;2023-01-25T12:49:41;96183.03;;;1.62
40045;BMP280;25735;48.122;11.422;2023-01-25T12:52:19;96175.06;;;1.55
40045;BMP280;25735;48.122;11.422;2023-01-25T12:54:46;96178.34;;;1.19
40045;BMP280;25735;48.122;11.422;2023-01-25T12:57:24;96169.22;;;1.17
40045;BMP280;25735;48.122;11.422;2023-01-25T13:00:02;96174.94;;;1.15
40045;BMP280;25735;48.122;11.422;2023-01-25T13:05:21;96158.34;;;1.38
40045;BMP280;25735;48.122;11.422;2023-01-25T13:10:30;96156.81;;;1.40
40045;BMP280;25735;48.122;11.422;2023-01-25T13:12:59;96165.72;;;1.20
40045;BMP280;25735;48.122;11.422;2023-01-25T13:15:41;96155.31;;;1.32
40045;BMP280;25735;48.122;11.422;2023-01-25T13:21:07;96151.63;;;1.66
40045;BMP280;25735;48.122;11.422;2023-01-25T13:23:43;96158.28;;;1.48
40045;BMP280;25735;48.122;11.422;2023-01-25T13:28:55;96153.28;;;1.53
40045;BMP280;25735;48.122;11.422;2023-01-25T13:42:17;96151.31;;;1.57
40045;BMP280;25735;48.122;11.422;2023-01-25T13:44:45;96141.81;;;1.49
40045;BMP280;25735;48.122;11.422;2023-01-25T13:47:14;96139.16;;;1.46
40045;BMP280;25735;48.122;11.422;2023-01-25T13:50:16;96137.47;;;1.66
40045;BMP280;25735;48.122;11.422;2023-01-25T13:53:40;96133.91;;;1.32
40045;BMP280;25735;48.122;11.422;2023-01-25T13:55:52;96130.44;;;1.35
40045;BMP280;25735;48.122;11.422;2023-01-25T13:58:24;96132.25;;;1.48
40045;BMP280;25735;48.122;11.422;2023-01-25T14:00:53;96128.38;;;1.56
40045;BMP280;25735;48.122;11.422;2023-01-25T14:03:28;96120.66;;;1.62
40045;BMP280;25735;48.122;11.422;2023-01-25T14:05:56;96126.28;;;1.27
40045;BMP280;25735;48.122;11.422;2023-01-25T14:08:22;96125.53;;;1.27
40045;BMP280;25735;48.122;11.422;2023-01-25T14:10:49;96124.44;;;1.21
40045;BMP280;25735;48.122;11.422;2023-01-25T14:13:16;96121.63;;;1.38
40045;BMP280;25735;48.122;11.422;2023-01-25T14:15:52;96126.28;;;1.31
40045;BMP280;25735;48.122;11.422;2023-01-25T14:18:19;96127.72;;;1.39
40045;BMP280;25735;48.122;11.422;2023-01-25T14:20:46;96120.88;;;1.38
40045;BMP280;25735;48.122;11.422;2023-01-25T14:25:52;96109.88;;;1.22
40045;BMP280;25735;48.122;11.422;2023-01-25T14:28:18;96120.19;;;1.23
40045;BMP280;25735;48.122;11.422;2023-01-25T14:30:49;96117.88;;;1.25
40045;BMP280;25735;48.122;11.422;2023-01-25T14:33:17;96100.38;;;1.14
40045;BMP280;25735;48.122;11.422;2023-01-25T14:35:48;96104.16;;;1.20
40045;BMP280;25735;48.122;11.422;2023-01-25T14:38:21;96100.75;;;1.12
40045;BMP280;25735;48.122;11.422;2023-01-25T14:40:47;96104.94;;;1.20
40045;BMP280;25735;48.122;11.422;2023-01-25T14:43:14;96099.66;;;1.07
40045;BMP280;25735;48.122;11.422;2023-01-25T14:45:40;96093.47;;;1.16
40045;BMP280;25735;48.122;11.422;2023-01-25T14:48:31;96096.50;;;1.22
40045;BMP280;25735;48.122;11.422;2023-01-25T14:51:08;96098.13;;;1.06
40045;BMP280;25735;48.122;11.422;2023-01-25T14:53:38;96090.09;;;1.09
40045;BMP280;25735;48.122;11.422;2023-01-25T14:56:16;96092.84;;;0.99
40045;BMP280;25735;48.122;11.422;2023-01-25T14:58:42;96102.00;;;1.01
40045;BMP280;25735;48.122;11.422;2023-01-25T15:04:18;96086.66;;;1.09
40045;BMP280;25735;48.122;11.422;2023-01-25T15:06:48;96090.50;;;1.04
40045;BMP280;25735;48.122;11.422;2023-01-25T15:14:49;96093.50;;;1.10
40045;BMP280;25735;48.122;11.422;2023-01-25T15:17:34;96092.31;;;1.21
40045;BMP280;25735;48.122;11.422;2023-01-25T15:19:59;96091.25;;;1.08
40045;BMP280;25735;48.122;11.422;2023-01-25T15:22:24;96081.63;;;1.17
40045;BMP280;25735;48.122;11.422;2023-01-25T15:24:50;96072.53;;;1.05
40045;BMP280;25735;48.122;11.422;2023-01-25T15:27:16;96061.41;;;1.06
40045;BMP280;25735;48.122;11.422;2023-01-25T15:29:41;96053.41;;;1.03
40045;BMP280;25735;48.122;11.422;2023-01-25T15:32:15;96053.34;;;1.13
40045;BMP280;25735;48.122;11.422;2023-01-25T15:34:42;96051.13;;;1.05
40045;BMP280;25735;48.122;11.422;2023-01-25T15:37:08;96059.09;;;1.12
40045;BMP280;25735;48.122;11.422;2023-01-25T15:39:33;96049.56;;;1.07
40045;BMP280;25735;48.122;11.422;2023-01-25T15:41:59;96067.53;;;1.07
40045;BMP280;25735;48.122;11.422;2023-01-25T15:44:24;96061.72;;;1.18
40045;BMP280;25735;48.122;11.422;2023-01-25T15:46:50;96057.13;;;1.19